sensor_id;sensor_type;location;lat;lon;timestamp;P1;durP1;ratioP1;P2;durP2;ratioP2
21758;SDS011;11041;50.854;20.580;2023-09-12T00:02:12;43.28;;;32.53;;
21758;SDS011;11041;50.854;20.580;2023-09-12T00:04:41;39.28;;;31.05;;
21758;SDS011;11041;50.854;20.580;2023-09-12T00:07:10;44.63;;;35.83;;
21758;SDS011;11041;50.854;20.580;2023-09-12T00:09:40;42.33;;;34.30;;
21758;SDS011;11041;50.854;20.580;2023-09-12T00:12:06;42.97;;;34.38;;
21758;SDS011;11041;50.854;20.580;2023-09-12T00:14:42;49.85;;;36.97;;
21758;SDS011;11041;50.854;20.580;2023-09-12T00:17:09;42.35;;;33.17;;
21758;SDS011;11041;50.854;20.580;2023-09-12T00:19:36;43.67;;;33.60;;
21758;SDS011;11041;50.854;20.580;2023-09-12T00:22:03;39.85;;;30.90;;
21758;SDS011;11041;50.854;20.580;2023-09-12T00:24:32;40.83;;;32.17;;
21758;SDS011;11041;50.854;20.580;2023-09-12T00:26:59;36.08;;;28.85;;
21758;SDS011;11041;50.854;20.580;2023-09-12T00:29:25;35.13;;;29.15;;
21758;SDS011;11041;50.854;20.580;2023-09-12T00:31:52;38.50;;;28.60;;
21758;SDS011;11041;50.854;20.580;2023-09-12T00:34:19;31.58;;;28.17;;
21758;SDS011;11041;50.854;20.580;2023-09-12T00:36:48;33.17;;;27.08;;
21758;SDS011;11041;50.854;20.580;2023-09-12T00:39:15;35.22;;;25.88;;
21758;SDS011;11041;50.854;20.580;2023-09-12T00:41:42;29.30;;;24.60;;
21758;SDS011;11041;50.854;20.580;2023-09-12T00:44:10;34.05;;;25.63;;
21758;SDS011;11041;50.854;20.580;2023-09-12T00:46:37;40.20;;;28.75;;
21758;SDS011;11041;50.854;20.580;2023-09-12T00:49:05;33.63;;;28.45;;
21758;SDS011;11041;50.854;20.580;2023-09-12T00:51:34;34.55;;;27.33;;
21758;SDS011;11041;50.854;20.580;2023-09-12T00:54:05;32.08;;;26.25;;
21758;SDS011;11041;50.854;20.580;2023-09-12T00:56:34;35.45;;;26.60;;
21758;SDS011;11041;50.854;20.580;2023-09-12T00:59:02;34.55;;;25.55;;
21758;SDS011;11041;50.854;20.580;2023-09-12T01:01:31;35.03;;;26.13;;
21758;SDS011;11041;50.854;20.580;2023-09-12T01:03:59;34.17;;;26.48;;
21758;SDS011;11041;50.854;20.580;2023-09-12T01:06:28;34.05;;;26.30;;
21758;SDS011;11041;50.854;20.580;2023-09-12T01:08:59;34.15;;;26.38;;
21758;SDS011;11041;50.854;20.580;2023-09-12T01:11:28;29.83;;;24.95;;
21758;SDS011;11041;50.854;20.580;2023-09-12T01:13:58;32.65;;;25.40;;
21758;SDS011;11041;50.854;20.580;2023-09-12T01:16:24;29.80;;;25.17;;
21758;SDS011;11041;50.854;20.580;2023-09-12T01:18:52;34.15;;;25.05;;
21758;SDS011;11041;50.854;20.580;2023-09-12T01:24:38;30.90;;;26.15;;
21758;SDS011;11041;50.854;20.580;2023-09-12T01:27:39;29.50;;;23.30;;
21758;SDS011;11041;50.854;20.580;2023-09-12T01:30:12;30.15;;;24.42;;
21758;SDS011;11041;50.854;20.580;2023-09-12T01:32:53;28.38;;;23.58;;
21758;SDS011;11041;50.854;20.580;2023-09-12T01:35:23;29.48;;;24.67;;
21758;SDS011;11041;50.854;20.580;2023-09-12T01:37:50;30.65;;;23.98;;
21758;SDS011;11041;50.854;20.580;2023-09-12T01:40:17;28.20;;;23.40;;
21758;SDS011;11041;50.854;20.580;2023-09-12T01:42:54;27.50;;;24.23;;
21758;SDS011;11041;50.854;20.580;2023-09-12T01:45:23;27.20;;;23.30;;
21758;SDS011;11041;50.854;20.580;2023-09-12T01:47:51;27.27;;;23.67;;
21758;SDS011;11041;50.854;20.580;2023-09-12T01:50:20;29.25;;;24.65;;
21758;SDS011;11041;50.854;20.580;2023-09-12T01:52:51;27.35;;;23.95;;
21758;SDS011;11041;50.854;20.580;2023-09-12T01:55:19;27.98;;;24.10;;
21758;SDS011;11041;50.854;20.580;2023-09-12T02:00:38;27.70;;;24.33;;
21758;SDS011;11041;50.854;20.580;2023-09-12T02:03:08;28.02;;;23.63;;
21758;SDS011;11041;50.854;20.580;2023-09-12T02:05:35;27.17;;;23.00;;
21758;SDS011;11041;50.854;20.580;2023-09-12T02:08:08;29.48;;;24.40;;
21758;SDS011;11041;50.854;20.580;2023-09-12T02:10:37;26.00;;;22.90;;
21758;SDS011;11041;50.854;20.580;2023-09-12T02:13:04;29.05;;;24.45;;
21758;SDS011;11041;50.854;20.580;2023-09-12T02:15:33;24.98;;;22.25;;
21758;SDS011;11041;50.854;20.580;2023-09-12T02:18:01;27.95;;;23.27;;
21758;SDS011;11041;50.854;20.580;2023-09-12T02:20:31;26.58;;;22.65;;
21758;SDS011;11041;50.854;20.580;2023-09-12T02:23:03;26.50;;;22.33;;
21758;SDS011;11041;50.854;20.580;2023-09-12T02:25:30;27.55;;;22.67;;
21758;SDS011;11041;50.854;20.580;2023-09-12T02:27:58;24.77;;;22.17;;
21758;SDS011;11041;50.854;20.580;2023-09-12T02:30:26;27.80;;;22.52;;
21758;SDS011;11041;50.854;20.580;2023-09-12T02:32:52;28.45;;;22.23;;
21758;SDS011;11041;50.854;20.580;2023-09-12T02:35:19;27.95;;;22.30;;
21758;SDS011;11041;50.854;20.580;2023-09-12T02:37:45;23.77;;;19.77;;
21758;SDS011;11041;50.854;20.580;2023-09-12T02:40:12;26.38;;;22.20;;
21758;SDS011;11041;50.854;20.580;2023-09-12T02:42:44;26.58;;;22.25;;
21758;SDS011;11041;50.854;20.580;2023-09-12T02:45:10;29.35;;;25.02;;
21758;SDS011;11041;50.854;20.580;2023-09-12T02:47:39;29.05;;;23.88;;
21758;SDS011;11041;50.854;20.580;2023-09-12T02:50:05;28.45;;;24.42;;
21758;SDS011;11041;50.854;20.580;2023-09-12T02:52:32;31.77;;;24.15;;
21758;SDS011;11041;50.854;20.580;2023-09-12T02:55:02;27.48;;;23.10;;
21758;SDS011;11041;50.854;20.580;2023-09-12T02:57:29;28.50;;;24.27;;
21758;SDS011;11041;50.854;20.580;2023-09-12T02:59:58;31.20;;;24.20;;
21758;SDS011;11041;50.854;20.580;2023-09-12T03:02:26;30.90;;;24.52;;
21758;SDS011;11041;50.854;20.580;2023-09-12T03:04:55;28.20;;;23.40;;
21758;SDS011;11041;50.854;20.580;2023-09-12T03:07:21;30.80;;;24.70;;
21758;SDS011;11041;50.854;20.580;2023-09-12T03:09:52;28.35;;;25.35;;
21758;SDS011;11041;50.854;20.580;2023-09-12T03:12:24;29.70;;;25.02;;
21758;SDS011;11041;50.854;20.580;2023-09-12T03:14:52;26.02;;;22.98;;
21758;SDS011;11041;50.854;20.580;2023-09-12T03:17:19;28.27;;;23.45;;
21758;SDS011;11041;50.854;20.580;2023-09-12T03:19:46;27.83;;;23.13;;
21758;SDS011;11041;50.854;20.580;2023-09-12T03:22:13;28.30;;;24.90;;
21758;SDS011;11041;50.854;20.580;2023-09-12T03:24:42;27.58;;;24.13;;
21758;SDS011;11041;50.854;20.580;2023-09-12T03:27:10;30.90;;;25.77;;
21758;SDS011;11041;50.854;20.580;2023-09-12T03:29:37;27.65;;;22.60;;
21758;SDS011;11041;50.854;20.580;2023-09-12T03:32:05;26.65;;;22.00;;
21758;SDS011;11041;50.854;20.580;2023-09-12T03:34:36;26.67;;;22.73;;
21758;SDS011;11041;50.854;20.580;2023-09-12T03:37:02;26.05;;;22.63;;
21758;SDS011;11041;50.854;20.580;2023-09-12T03:39:30;26.65;;;22.80;;
21758;SDS011;11041;50.854;20.580;2023-09-12T03:41:59;27.30;;;24.42;;
21758;SDS011;11041;50.854;20.580;2023-09-12T03:44:29;29.35;;;25.38;;
21758;SDS011;11041;50.854;20.580;2023-09-12T03:46:55;28.02;;;24.60;;
21758;SDS011;11041;50.854;20.580;2023-09-12T03:49:24;27.38;;;24.48;;
21758;SDS011;11041;50.854;20.580;2023-09-12T03:51:55;27.25;;;23.45;;
21758;SDS011;11041;50.854;20.580;2023-09-12T03:54:21;27.55;;;24.65;;
21758;SDS011;11041;50.854;20.580;2023-09-12T03:56:50;27.40;;;24.48;;
21758;SDS011;11041;50.854;20.580;2023-09-12T03:59:19;26.55;;;23.70;;
21758;SDS011;11041;50.854;20.580;2023-09-12T04:01:46;28.73;;;23.42;;
21758;SDS011;11041;50.854;20.580;2023-09-12T04:04:15;25.50;;;22.67;;
21758;SDS011;11041;50.854;20.580;2023-09-12T04:06:42;27.65;;;22.92;;
21758;SDS011;11041;50.854;20.580;2023-09-12T04:09:09;25.05;;;22.42;;
21758;SDS011;11041;50.854;20.580;2023-09-12T04:11:36;28.90;;;22.98;;
21758;SDS011;11041;50.854;20.580;2023-09-12T04:14:03;27.33;;;22.80;;
21758;SDS011;11041;50.854;20.580;2023-09-12T04:16:29;26.48;;;23.70;;
21758;SDS011;11041;50.854;20.580;2023-09-12T04:18:56;26.45;;;23.33;;
21758;SDS011;11041;50.854;20.580;2023-09-12T04:21:26;26.25;;;23.50;;
21758;SDS011;11041;50.854;20.580;2023-09-12T04:23:52;28.40;;;24.40;;
21758;SDS011;11041;50.854;20.580;2023-09-12T04:26:19;26.30;;;23.50;;
21758;SDS011;11041;50.854;20.580;2023-09-12T04:28:48;25.48;;;22.83;;
21758;SDS011;11041;50.854;20.580;2023-09-12T04:31:16;29.52;;;23.42;;
21758;SDS011;11041;50.854;20.580;2023-09-12T04:33:45;24.67;;;22.02;;
21758;SDS011;11041;50.854;20.580;2023-09-12T04:36:11;26.65;;;23.80;;
21758;SDS011;11041;50.854;20.580;2023-09-12T04:38:39;25.73;;;22.95;;
21758;SDS011;11041;50.854;20.580;2023-09-12T04:41:07;26.38;;;22.75;;
21758;SDS011;11041;50.854;20.580;2023-09-12T04:43:34;24.95;;;22.02;;
21758;SDS011;11041;50.854;20.580;2023-09-12T04:46:00;25.95;;;22.63;;
21758;SDS011;11041;50.854;20.580;2023-09-12T04:48:27;24.65;;;21.95;;
21758;SDS011;11041;50.854;20.580;2023-09-12T04:50:54;25.50;;;22.67;;
21758;SDS011;11041;50.854;20.580;2023-09-12T04:53:22;25.83;;;23.00;;
21758;SDS011;11041;50.854;20.580;2023-09-12T04:55:51;25.60;;;21.92;;
21758;SDS011;11041;50.854;20.580;2023-09-12T04:58:21;25.27;;;22.52;;
21758;SDS011;11041;50.854;20.580;2023-09-12T05:00:49;26.38;;;23.58;;
21758;SDS011;11041;50.854;20.580;2023-09-12T05:03:16;26.48;;;23.58;;
21758;SDS011;11041;50.854;20.580;2023-09-12T05:05:46;26.95;;;24.05;;
21758;SDS011;11041;50.854;20.580;2023-09-12T05:08:17;28.45;;;23.38;;
21758;SDS011;11041;50.854;20.580;2023-09-12T05:10:48;30.50;;;25.30;;
21758;SDS011;11041;50.854;20.580;2023-09-12T05:13:15;32.50;;;24.65;;
21758;SDS011;11041;50.854;20.580;2023-09-12T05:15:43;27.88;;;24.88;;
21758;SDS011;11041;50.854;20.580;2023-09-12T05:18:10;29.17;;;25.15;;
21758;SDS011;11041;50.854;20.580;2023-09-12T05:20:37;29.60;;;25.67;;
21758;SDS011;11041;50.854;20.580;2023-09-12T05:23:04;34.28;;;26.40;;
21758;SDS011;11041;50.854;20.580;2023-09-12T05:25:31;26.13;;;23.35;;
21758;SDS011;11041;50.854;20.580;2023-09-12T05:27:58;27.30;;;24.27;;
21758;SDS011;11041;50.854;20.580;2023-09-12T05:30:25;27.05;;;24.13;;
21758;SDS011;11041;50.854;20.580;2023-09-12T05:32:52;27.40;;;23.95;;
21758;SDS011;11041;50.854;20.580;2023-09-12T05:35:19;28.33;;;24.02;;
21758;SDS011;11041;50.854;20.580;2023-09-12T05:37:49;27.98;;;24.40;;
21758;SDS011;11041;50.854;20.580;2023-09-12T05:40:17;31.40;;;24.52;;
21758;SDS011;11041;50.854;20.580;2023-09-12T05:42:45;27.35;;;24.42;;
21758;SDS011;11041;50.854;20.580;2023-09-12T05:45:11;26.30;;;23.60;;
21758;SDS011;11041;50.854;20.580;2023-09-12T05:47:38;26.10;;;23.40;;
21758;SDS011;11041;50.854;20.580;2023-09-12T05:50:05;27.70;;;24.50;;
21758;SDS011;11041;50.854;20.580;2023-09-12T05:52:33;26.65;;;23.88;;
21758;SDS011;11041;50.854;20.580;2023-09-12T05:54:59;26.85;;;24.15;;
21758;SDS011;11041;50.854;20.580;2023-09-12T05:57:29;27.23;;;24.38;;
21758;SDS011;11041;50.854;20.580;2023-09-12T05:59:58;30.17;;;25.98;;
21758;SDS011;11041;50.854;20.580;2023-09-12T06:02:31;26.48;;;23.55;;
21758;SDS011;11041;50.854;20.580;2023-09-12T06:04:59;55.20;;;26.92;;
21758;SDS011;11041;50.854;20.580;2023-09-12T06:07:40;58.20;;;28.35;;
21758;SDS011;11041;50.854;20.580;2023-09-12T06:10:07;50.95;;;27.98;;
21758;SDS011;11041;50.854;20.580;2023-09-12T06:12:37;49.00;;;27.98;;
21758;SDS011;11041;50.854;20.580;2023-09-12T06:15:08;44.30;;;27.25;;
21758;SDS011;11041;50.854;20.580;2023-09-12T06:17:37;42.53;;;27.95;;
21758;SDS011;11041;50.854;20.580;2023-09-12T06:20:04;39.70;;;28.13;;
21758;SDS011;11041;50.854;20.580;2023-09-12T06:22:32;36.33;;;28.05;;
21758;SDS011;11041;50.854;20.580;2023-09-12T06:24:59;40.30;;;27.73;;
21758;SDS011;11041;50.854;20.580;2023-09-12T06:27:27;32.22;;;25.88;;
21758;SDS011;11041;50.854;20.580;2023-09-12T06:29:54;30.00;;;24.63;;
21758;SDS011;11041;50.854;20.580;2023-09-12T06:32:21;30.63;;;25.40;;
21758;SDS011;11041;50.854;20.580;2023-09-12T06:34:51;32.22;;;24.13;;
21758;SDS011;11041;50.854;20.580;2023-09-12T06:37:18;32.50;;;27.45;;
21758;SDS011;11041;50.854;20.580;2023-09-12T06:39:48;28.55;;;25.05;;
21758;SDS011;11041;50.854;20.580;2023-09-12T06:42:18;29.88;;;23.65;;
21758;SDS011;11041;50.854;20.580;2023-09-12T06:44:44;38.20;;;27.83;;
21758;SDS011;11041;50.854;20.580;2023-09-12T06:47:13;30.58;;;24.23;;
21758;SDS011;11041;50.854;20.580;2023-09-12T06:49:39;40.97;;;26.77;;
21758;SDS011;11041;50.854;20.580;2023-09-12T06:52:08;41.63;;;27.02;;
21758;SDS011;11041;50.854;20.580;2023-09-12T06:54:37;37.65;;;24.75;;
21758;SDS011;11041;50.854;20.580;2023-09-12T06:57:07;39.30;;;25.98;;
21758;SDS011;11041;50.854;20.580;2023-09-12T06:59:39;38.17;;;25.35;;
21758;SDS011;11041;50.854;20.580;2023-09-12T07:02:06;37.50;;;25.35;;
21758;SDS011;11041;50.854;20.580;2023-09-12T07:04:34;32.72;;;24.35;;
21758;SDS011;11041;50.854;20.580;2023-09-12T07:07:01;36.63;;;24.25;;
21758;SDS011;11041;50.854;20.580;2023-09-12T07:09:28;34.03;;;24.00;;
21758;SDS011;11041;50.854;20.580;2023-09-12T07:11:54;34.55;;;25.08;;
21758;SDS011;11041;50.854;20.580;2023-09-12T07:14:21;30.30;;;22.55;;
21758;SDS011;11041;50.854;20.580;2023-09-12T07:16:50;32.70;;;23.00;;
21758;SDS011;11041;50.854;20.580;2023-09-12T07:19:17;25.60;;;20.98;;
21758;SDS011;11041;50.854;20.580;2023-09-12T07:21:46;27.83;;;20.42;;
21758;SDS011;11041;50.854;20.580;2023-09-12T07:24:12;34.50;;;23.98;;
21758;SDS011;11041;50.854;20.580;2023-09-12T07:26:39;32.00;;;22.05;;
21758;SDS011;11041;50.854;20.580;2023-09-12T07:29:08;29.35;;;22.83;;
21758;SDS011;11041;50.854;20.580;2023-09-12T07:31:41;30.92;;;21.70;;
21758;SDS011;11041;50.854;20.580;2023-09-12T07:34:10;30.08;;;21.05;;
21758;SDS011;11041;50.854;20.580;2023-09-12T07:36:40;28.98;;;21.58;;
21758;SDS011;11041;50.854;20.580;2023-09-12T07:39:07;26.95;;;20.38;;
21758;SDS011;11041;50.854;20.580;2023-09-12T07:41:34;35.40;;;21.20;;
21758;SDS011;11041;50.854;20.580;2023-09-12T07:44:00;28.23;;;20.88;;
21758;SDS011;11041;50.854;20.580;2023-09-12T07:46:30;31.35;;;19.00;;
21758;SDS011;11041;50.854;20.580;2023-09-12T07:48:59;27.45;;;19.70;;
21758;SDS011;11041;50.854;20.580;2023-09-12T07:51:26;28.42;;;19.52;;
21758;SDS011;11041;50.854;20.580;2023-09-12T07:53:53;22.75;;;18.75;;
21758;SDS011;11041;50.854;20.580;2023-09-12T07:56:20;26.70;;;19.38;;
21758;SDS011;11041;50.854;20.580;2023-09-12T07:58:48;24.90;;;18.77;;
21758;SDS011;11041;50.854;20.580;2023-09-12T08:01:15;21.27;;;17.55;;
21758;SDS011;11041;50.854;20.580;2023-09-12T08:03:42;23.02;;;16.80;;
21758;SDS011;11041;50.854;20.580;2023-09-12T08:06:09;20.35;;;16.02;;
21758;SDS011;11041;50.854;20.580;2023-09-12T08:08:36;21.85;;;16.70;;
21758;SDS011;11041;50.854;20.580;2023-09-12T08:11:03;19.58;;;15.82;;
21758;SDS011;11041;50.854;20.580;2023-09-12T08:13:30;23.63;;;14.43;;
21758;SDS011;11041;50.854;20.580;2023-09-12T08:15:57;20.23;;;14.80;;
21758;SDS011;11041;50.854;20.580;2023-09-12T08:18:26;20.48;;;16.27;;
21758;SDS011;11041;50.854;20.580;2023-09-12T08:20:56;23.08;;;16.98;;
21758;SDS011;11041;50.854;20.580;2023-09-12T08:23:24;27.23;;;16.92;;
21758;SDS011;11041;50.854;20.580;2023-09-12T08:25:51;20.90;;;16.08;;
21758;SDS011;11041;50.854;20.580;2023-09-12T08:28:17;27.52;;;17.70;;
21758;SDS011;11041;50.854;20.580;2023-09-12T08:30:45;24.50;;;16.27;;
21758;SDS011;11041;50.854;20.580;2023-09-12T08:33:15;27.02;;;17.52;;
21758;SDS011;11041;50.854;20.580;2023-09-12T08:35:42;20.75;;;16.83;;
21758;SDS011;11041;50.854;20.580;2023-09-12T08:38:11;19.38;;;16.17;;
21758;SDS011;11041;50.854;20.580;2023-09-12T08:40:47;22.17;;;16.83;;
21758;SDS011;11041;50.854;20.580;2023-09-12T08:43:16;23.98;;;16.88;;
21758;SDS011;11041;50.854;20.580;2023-09-12T08:45:44;22.48;;;17.10;;
21758;SDS011;11041;50.854;20.580;2023-09-12T08:48:13;22.42;;;16.42;;
21758;SDS011;11041;50.854;20.580;2023-09-12T08:50:42;24.83;;;18.05;;
21758;SDS011;11041;50.854;20.580;2023-09-12T08:53:12;24.88;;;17.38;;
21758;SDS011;11041;50.854;20.580;2023-09-12T08:55:39;24.33;;;17.63;;
21758;SDS011;11041;50.854;20.580;2023-09-12T08:58:07;25.23;;;18.80;;
21758;SDS011;11041;50.854;20.580;2023-09-12T09:00:35;25.63;;;18.20;;
21758;SDS011;11041;50.854;20.580;2023-09-12T09:03:03;24.13;;;17.75;;
21758;SDS011;11041;50.854;20.580;2023-09-12T09:05:31;19.88;;;17.25;;
21758;SDS011;11041;50.854;20.580;2023-09-12T09:08:02;21.27;;;16.33;;
21758;SDS011;11041;50.854;20.580;2023-09-12T09:10:31;24.52;;;17.52;;
21758;SDS011;11041;50.854;20.580;2023-09-12T09:12:58;29.00;;;16.13;;
21758;SDS011;11041;50.854;20.580;2023-09-12T09:15:28;18.23;;;15.15;;
21758;SDS011;11041;50.854;20.580;2023-09-12T09:18:01;20.00;;;14.77;;
21758;SDS011;11041;50.854;20.580;2023-09-12T09:20:32;19.80;;;15.82;;
21758;SDS011;11041;50.854;20.580;2023-09-12T09:23:02;22.15;;;16.83;;
21758;SDS011;11041;50.854;20.580;2023-09-12T09:25:40;20.42;;;15.02;;
21758;SDS011;11041;50.854;20.580;2023-09-12T09:30:48;20.20;;;13.45;;
21758;SDS011;11041;50.854;20.580;2023-09-12T09:33:17;13.75;;;12.35;;
21758;SDS011;11041;50.854;20.580;2023-09-12T09:35:48;18.42;;;14.40;;
21758;SDS011;11041;50.854;20.580;2023-09-12T09:38:18;12.90;;;11.57;;
21758;SDS011;11041;50.854;20.580;2023-09-12T09:40:46;16.60;;;12.23;;
21758;SDS011;11041;50.854;20.580;2023-09-12T09:43:13;14.20;;;10.88;;
21758;SDS011;11041;50.854;20.580;2023-09-12T09:45:50;13.05;;;10.90;;
21758;SDS011;11041;50.854;20.580;2023-09-12T09:48:18;11.32;;;9.95;;
21758;SDS011;11041;50.854;20.580;2023-09-12T09:50:52;14.15;;;11.73;;
21758;SDS011;11041;50.854;20.580;2023-09-12T09:53:26;11.60;;;10.40;;
21758;SDS011;11041;50.854;20.580;2023-09-12T09:56:07;18.92;;;11.25;;
21758;SDS011;11041;50.854;20.580;2023-09-12T09:58:53;13.85;;;11.30;;
21758;SDS011;11041;50.854;20.580;2023-09-12T10:01:23;14.98;;;10.63;;
21758;SDS011;11041;50.854;20.580;2023-09-12T10:03:58;12.07;;;9.82;;
21758;SDS011;11041;50.854;20.580;2023-09-12T10:06:28;13.95;;;10.57;;
21758;SDS011;11041;50.854;20.580;2023-09-12T10:09:01;11.20;;;10.00;;
21758;SDS011;11041;50.854;20.580;2023-09-12T10:11:38;12.95;;;10.35;;
21758;SDS011;11041;50.854;20.580;2023-09-12T10:14:07;11.30;;;10.07;;
21758;SDS011;11041;50.854;20.580;2023-09-12T10:16:36;13.00;;;10.77;;
21758;SDS011;11041;50.854;20.580;2023-09-12T10:19:13;11.45;;;10.30;;
21758;SDS011;11041;50.854;20.580;2023-09-12T10:22:17;13.48;;;10.45;;
21758;SDS011;11041;50.854;20.580;2023-09-12T10:24:51;11.57;;;9.98;;
21758;SDS011;11041;50.854;20.580;2023-09-12T10:27:21;15.80;;;10.82;;
21758;SDS011;11041;50.854;20.580;2023-09-12T10:29:51;12.35;;;10.55;;
21758;SDS011;11041;50.854;20.580;2023-09-12T10:32:19;12.32;;;10.68;;
21758;SDS011;11041;50.854;20.580;2023-09-12T10:34:48;12.45;;;10.90;;
21758;SDS011;11041;50.854;20.580;2023-09-12T10:37:16;12.75;;;10.93;;
21758;SDS011;11041;50.854;20.580;2023-09-12T10:39:47;14.18;;;10.85;;
21758;SDS011;11041;50.854;20.580;2023-09-12T10:42:19;14.07;;;11.15;;
21758;SDS011;11041;50.854;20.580;2023-09-12T10:44:47;14.00;;;11.18;;
21758;SDS011;11041;50.854;20.580;2023-09-12T10:47:18;13.82;;;10.98;;
21758;SDS011;11041;50.854;20.580;2023-09-12T10:49:45;13.38;;;11.65;;
21758;SDS011;11041;50.854;20.580;2023-09-12T10:52:25;12.63;;;11.23;;
21758;SDS011;11041;50.854;20.580;2023-09-12T10:54:53;12.02;;;10.80;;
21758;SDS011;11041;50.854;20.580;2023-09-12T10:57:22;13.43;;;11.23;;
21758;SDS011;11041;50.854;20.580;2023-09-12T11:02:30;12.77;;;11.45;;
21758;SDS011;11041;50.854;20.580;2023-09-12T11:05:00;12.57;;;10.95;;
21758;SDS011;11041;50.854;20.580;2023-09-12T11:07:57;15.70;;;11.15;;
21758;SDS011;11041;50.854;20.580;2023-09-12T11:10:26;12.93;;;11.07;;
21758;SDS011;11041;50.854;20.580;2023-09-12T11:12:55;14.45;;;11.80;;
21758;SDS011;11041;50.854;20.580;2023-09-12T11:15:24;15.93;;;11.55;;
21758;SDS011;11041;50.854;20.580;2023-09-12T11:18:00;13.40;;;11.55;;
21758;SDS011;11041;50.854;20.580;2023-09-12T11:23:39;14.55;;;11.07;;
21758;SDS011;11041;50.854;20.580;2023-09-12T11:26:06;18.48;;;11.65;;
21758;SDS011;11041;50.854;20.580;2023-09-12T11:28:36;15.52;;;11.00;;
21758;SDS011;11041;50.854;20.580;2023-09-12T11:31:04;17.25;;;10.90;;
21758;SDS011;11041;50.854;20.580;2023-09-12T11:33:32;13.27;;;11.20;;
21758;SDS011;11041;50.854;20.580;2023-09-12T11:35:59;14.85;;;11.43;;
21758;SDS011;11041;50.854;20.580;2023-09-12T11:38:30;11.05;;;9.95;;
21758;SDS011;11041;50.854;20.580;2023-09-12T11:40:58;14.93;;;10.65;;
21758;SDS011;11041;50.854;20.580;2023-09-12T11:43:26;13.32;;;10.48;;
21758;SDS011;11041;50.854;20.580;2023-09-12T11:45:54;11.98;;;10.85;;
21758;SDS011;11041;50.854;20.580;2023-09-12T11:48:23;12.45;;;11.18;;
21758;SDS011;11041;50.854;20.580;2023-09-12T11:50:52;14.15;;;10.15;;
21758;SDS011;11041;50.854;20.580;2023-09-12T11:53:21;12.57;;;11.07;;
21758;SDS011;11041;50.854;20.580;2023-09-12T11:55:56;13.18;;;10.35;;
21758;SDS011;11041;50.854;20.580;2023-09-12T11:58:25;12.50;;;10.88;;
21758;SDS011;11041;50.854;20.580;2023-09-12T12:00:53;11.65;;;10.45;;
21758;SDS011;11041;50.854;20.580;2023-09-12T12:03:23;13.50;;;10.13;;
21758;SDS011;11041;50.854;20.580;2023-09-12T12:05:53;12.60;;;11.30;;
21758;SDS011;11041;50.854;20.580;2023-09-12T12:08:21;12.18;;;10.88;;
21758;SDS011;11041;50.854;20.580;2023-09-12T12:10:53;12.40;;;10.95;;
21758;SDS011;11041;50.854;20.580;2023-09-12T12:13:23;12.88;;;11.23;;
21758;SDS011;11041;50.854;20.580;2023-09-12T12:15:50;12.75;;;10.80;;
21758;SDS011;11041;50.854;20.580;2023-09-12T12:18:20;12.10;;;10.95;;
21758;SDS011;11041;50.854;20.580;2023-09-12T12:20:47;12.15;;;11.05;;
21758;SDS011;11041;50.854;20.580;2023-09-12T12:23:14;11.70;;;10.60;;
21758;SDS011;11041;50.854;20.580;2023-09-12T12:25:41;11.93;;;10.77;;
21758;SDS011;11041;50.854;20.580;2023-09-12T12:28:08;12.25;;;11.00;;
21758;SDS011;11041;50.854;20.580;2023-09-12T12:30:35;15.75;;;14.25;;
21758;SDS011;11041;50.854;20.580;2023-09-12T12:33:11;10.70;;;9.70;;
21758;SDS011;11041;50.854;20.580;2023-09-12T12:35:38;13.23;;;9.50;;
21758;SDS011;11041;50.854;20.580;2023-09-12T12:38:05;13.18;;;10.60;;
21758;SDS011;11041;50.854;20.580;2023-09-12T12:40:31;8.48;;;7.68;;
21758;SDS011;11041;50.854;20.580;2023-09-12T12:43:05;11.75;;;9.38;;
21758;SDS011;11041;50.854;20.580;2023-09-12T12:45:53;11.48;;;10.30;;
21758;SDS011;11041;50.854;20.580;2023-09-12T12:48:32;12.30;;;11.10;;
21758;SDS011;11041;50.854;20.580;2023-09-12T12:51:18;12.52;;;10.30;;
21758;SDS011;11041;50.854;20.580;2023-09-12T12:53:52;11.20;;;9.82;;
21758;SDS011;11041;50.854;20.580;2023-09-12T12:56:22;10.98;;;9.93;;
21758;SDS011;11041;50.854;20.580;2023-09-12T12:58:57;10.70;;;9.65;;
21758;SDS011;11041;50.854;20.580;2023-09-12T13:01:29;11.70;;;10.57;;
21758;SDS011;11041;50.854;20.580;2023-09-12T13:03:57;13.93;;;10.95;;
21758;SDS011;11041;50.854;20.580;2023-09-12T13:06:26;13.15;;;9.93;;
21758;SDS011;11041;50.854;20.580;2023-09-12T13:08:57;13.15;;;11.38;;
21758;SDS011;11041;50.854;20.580;2023-09-12T13:11:30;11.98;;;10.50;;
21758;SDS011;11041;50.854;20.580;2023-09-12T13:14:00;11.57;;;10.45;;
21758;SDS011;11041;50.854;20.580;2023-09-12T13:16:38;11.57;;;10.38;;
21758;SDS011;11041;50.854;20.580;2023-09-12T13:19:06;10.98;;;9.88;;
21758;SDS011;11041;50.854;20.580;2023-09-12T13:21:33;13.18;;;11.13;;
21758;SDS011;11041;50.854;20.580;2023-09-12T13:24:00;12.90;;;10.48;;
21758;SDS011;11041;50.854;20.580;2023-09-12T13:26:27;10.93;;;9.82;;
21758;SDS011;11041;50.854;20.580;2023-09-12T13:28:54;10.20;;;9.30;;
21758;SDS011;11041;50.854;20.580;2023-09-12T13:31:22;10.68;;;9.68;;
21758;SDS011;11041;50.854;20.580;2023-09-12T13:33:53;11.68;;;10.57;;
21758;SDS011;11041;50.854;20.580;2023-09-12T13:36:20;11.18;;;10.18;;
21758;SDS011;11041;50.854;20.580;2023-09-12T13:38:50;10.95;;;9.90;;
21758;SDS011;11041;50.854;20.580;2023-09-12T13:41:17;11.15;;;9.95;;
21758;SDS011;11041;50.854;20.580;2023-09-12T13:43:44;10.95;;;9.85;;
21758;SDS011;11041;50.854;20.580;2023-09-12T13:46:11;10.98;;;9.95;;
21758;SDS011;11041;50.854;20.580;2023-09-12T13:48:39;11.18;;;9.88;;
21758;SDS011;11041;50.854;20.580;2023-09-12T13:51:06;10.90;;;9.48;;
21758;SDS011;11041;50.854;20.580;2023-09-12T13:53:33;10.98;;;9.13;;
21758;SDS011;11041;50.854;20.580;2023-09-12T13:56:00;11.20;;;10.00;;
21758;SDS011;11041;50.854;20.580;2023-09-12T13:58:28;13.23;;;10.00;;
21758;SDS011;11041;50.854;20.580;2023-09-12T14:00:55;11.43;;;9.98;;
21758;SDS011;11041;50.854;20.580;2023-09-12T14:03:22;11.50;;;10.20;;
21758;SDS011;11041;50.854;20.580;2023-09-12T14:05:50;11.82;;;10.65;;
21758;SDS011;11041;50.854;20.580;2023-09-12T14:08:17;11.82;;;10.65;;
21758;SDS011;11041;50.854;20.580;2023-09-12T14:10:44;16.70;;;10.23;;
21758;SDS011;11041;50.854;20.580;2023-09-12T14:13:11;16.55;;;9.38;;
21758;SDS011;11041;50.854;20.580;2023-09-12T14:15:38;10.27;;;9.35;;
21758;SDS011;11041;50.854;20.580;2023-09-12T14:18:08;13.70;;;9.57;;
21758;SDS011;11041;50.854;20.580;2023-09-12T14:20:35;16.75;;;10.25;;
21758;SDS011;11041;50.854;20.580;2023-09-12T14:23:05;10.55;;;9.25;;
21758;SDS011;11041;50.854;20.580;2023-09-12T14:25:34;11.52;;;9.65;;
21758;SDS011;11041;50.854;20.580;2023-09-12T14:28:02;15.52;;;10.60;;
21758;SDS011;11041;50.854;20.580;2023-09-12T14:30:30;11.27;;;10.18;;
21758;SDS011;11041;50.854;20.580;2023-09-12T14:33:04;12.18;;;10.13;;
21758;SDS011;11041;50.854;20.580;2023-09-12T14:35:30;11.13;;;10.07;;
21758;SDS011;11041;50.854;20.580;2023-09-12T14:38:01;12.57;;;10.07;;